Terminal Aerodrome Forecast
Issued by NWS Los Angeles, CA

Home | Current Version | Previous Version | Text Only | Print | Product List | Glossary On
Versions: 1 2 3 4 5 6 7 8 9 10 11 12 13 14 15 16 17 18 19 20 21 22 23 24 25 26
000
FTUS46 KLOX 040212 AAA
TAFSMX
TAF AMD
KSMX 040212Z 0402/0424 32008KT P6SM BKN010
     FM040400 VRB03KT P6SM OVC006
     FM041700 VRB03KT P6SM FEW010 BKN150
     FM042000 26010KT P6SM BKN150=

USA.gov is the U.S. government's official web portal to all federal, state and local government web resources and services.